Time;durP1;ratioP1;P1;durP2;ratioP2;P2;SDS_P1;SDS_P2;PMS_P1;PMS_P2;Temp;Humidity;BMP_temperature;BMP_pressure;BME280_temperature;BME280_humidity;BME280_pressure;Samples;Min_cycle;Max_cycle;Signal;HPM_P1;HPM_P2
2022/08/05 00:01:23;;;;;;;;;;;26.80;73.70;;;;;;5070876;28;19916;-50
2022/08/05 00:03:49;;;;;;;;;;;26.90;73.60;;;;;;5071038;28;19924;-52
2022/08/05 00:06:15;;;;;;;;;;;26.80;73.70;;;;;;5067936;28;20488;-50
2022/08/05 00:08:40;;;;;;;;;;;26.80;73.90;;;;;;5069571;28;19916;-53
2022/08/05 00:11:08;;;;;;;;;;;26.80;73.80;;;;;;5070857;28;19908;-49
2022/08/05 00:13:35;;;;;;;;;;;26.80;73.90;;;;;;5069741;28;20372;-50
2022/08/05 00:16:01;;;;;;;;;;;26.90;73.90;;;;;;5070819;28;19912;-50
2022/08/05 00:18:27;;;;;;;;;;;26.80;73.90;;;;;;5069878;28;19909;-49
2022/08/05 00:20:54;;;;;;;;;;;26.60;74.10;;;;;;5053077;28;19915;-51
2022/08/05 00:23:20;;;;;;;;;;;26.50;74.70;;;;;;5060976;28;19944;-50
2022/08/05 00:25:45;;;;;;;;;;;26.60;74.60;;;;;;5069801;28;19963;-52
2022/08/05 00:28:11;;;;;;;;;;;26.40;74.90;;;;;;5070206;28;19917;-52
2022/08/05 00:30:36;;;;;;;;;;;26.20;75.40;;;;;;5065706;28;20403;-48
2022/08/05 00:33:02;;;;;;;;;;;26.20;75.60;;;;;;5067576;28;20543;-50
2022/08/05 00:35:27;;;;;;;;;;;26.00;76.40;;;;;;5064413;28;20338;-48
2022/08/05 00:37:53;;;;;;;;;;;25.80;76.90;;;;;;5063775;28;20281;-52
2022/08/05 00:40:19;;;;;;;;;;;25.70;77.00;;;;;;5056782;28;20568;-52
2022/08/05 00:42:45;;;;;;;;;;;25.70;76.90;;;;;;5064212;28;19912;-47
2022/08/05 00:45:10;;;;;;;;;;;25.80;77.00;;;;;;5063998;28;19973;-53
2022/08/05 00:47:36;;;;;;;;;;;25.90;76.90;;;;;;5063017;28;19913;-50
2022/08/05 00:50:01;;;;;;;;;;;25.90;76.80;;;;;;5073589;28;19973;-51
2022/08/05 00:52:27;;;;;;;;;;;25.80;76.80;;;;;;5074716;28;19912;-47
2022/08/05 00:54:52;;;;;;;;;;;25.80;77.10;;;;;;5070452;28;19912;-51
2022/08/05 00:57:18;;;;;;;;;;;25.70;77.40;;;;;;5073710;28;19913;-50
2022/08/05 00:59:43;;;;;;;;;;;25.80;77.40;;;;;;5081706;28;19917;-49
2022/08/05 01:02:11;;;;;;;;;;;25.70;77.40;;;;;;5073420;28;20216;-50
2022/08/05 01:04:36;;;;;;;;;;;25.70;77.80;;;;;;5072607;28;19912;-52
2022/08/05 01:07:02;;;;;;;;;;;25.70;77.80;;;;;;5077281;28;19921;-52
2022/08/05 01:09:27;;;;;;;;;;;25.70;77.90;;;;;;5068530;28;19917;-54
2022/08/05 01:11:54;;;;;;;;;;;25.60;77.90;;;;;;5055875;28;20054;-53
2022/08/05 01:14:25;;;;;;;;;;;25.70;78.00;;;;;;5061342;28;19938;-47
2022/08/05 01:17:02;;;;;;;;;;;25.70;78.00;;;;;;5071007;28;20339;-50
2022/08/05 01:19:28;;;;;;;;;;;25.70;78.00;;;;;;5054367;28;19909;-49
2022/08/05 01:22:06;;;;;;;;;;;25.70;78.10;;;;;;5055582;28;20058;-51
2022/08/05 01:24:31;;;;;;;;;;;25.70;78.20;;;;;;5074547;28;19909;-50
2022/08/05 01:26:57;;;;;;;;;;;25.60;78.40;;;;;;5070734;28;20303;-48
2022/08/05 01:29:28;;;;;;;;;;;25.60;78.40;;;;;;5053858;28;19916;-47
2022/08/05 01:31:55;;;;;;;;;;;25.60;78.60;;;;;;5054316;28;19909;-51
2022/08/05 01:34:26;;;;;;;;;;;25.60;78.70;;;;;;5074332;28;20390;-50
2022/08/05 01:36:58;;;;;;;;;;;25.60;78.50;;;;;;5073071;28;19908;-48
2022/08/05 01:39:25;;;;;;;;;;;25.50;79.00;;;;;;5054295;28;19959;-51
2022/08/05 01:41:51;;;;;;;;;;;25.30;79.40;;;;;;5054387;28;20386;-48
2022/08/05 01:44:18;;;;;;;;;;;25.00;80.60;;;;;;5066034;28;19919;-47
2022/08/05 01:46:44;;;;;;;;;;;25.00;80.80;;;;;;5071478;28;20544;-47
2022/08/05 01:49:12;;;;;;;;;;;25.10;80.40;;;;;;5071529;28;20585;-48
2022/08/05 01:51:38;;;;;;;;;;;24.90;80.90;;;;;;5073698;28;19917;-49
2022/08/05 01:54:06;;;;;;;;;;;25.00;80.90;;;;;;5073787;28;19913;-48
2022/08/05 01:56:33;;;;;;;;;;;24.80;81.40;;;;;;5061090;28;19960;-50
2022/08/05 01:58:59;;;;;;;;;;;24.70;82.20;;;;;;5071186;28;19991;-52
2022/08/05 02:01:26;;;;;;;;;;;24.80;81.80;;;;;;5069789;28;20257;-49
2022/08/05 02:03:52;;;;;;;;;;;24.60;82.30;;;;;;5064757;28;19916;-47
2022/08/05 02:06:18;;;;;;;;;;;24.50;82.80;;;;;;5071519;28;19970;-48
2022/08/05 02:08:43;;;;;;;;;;;24.60;82.50;;;;;;5073710;28;20012;-48
2022/08/05 02:11:10;;;;;;;;;;;24.70;82.20;;;;;;5073714;28;19912;-51
2022/08/05 02:13:45;;;;;;;;;;;24.50;82.40;;;;;;5073155;28;20504;-47
2022/08/05 02:16:21;;;;;;;;;;;24.60;82.80;;;;;;5066284;28;19925;-55
2022/08/05 02:18:49;;;;;;;;;;;24.60;82.60;;;;;;5060915;28;19912;-57
2022/08/05 02:21:20;;;;;;;;;;;24.50;82.90;;;;;;5073228;28;19985;-54
2022/08/05 02:23:47;;;;;;;;;;;24.50;83.10;;;;;;5074086;28;19920;-50
2022/08/05 02:26:17;;;;;;;;;;;24.50;83.20;;;;;;5073225;28;19923;-47
2022/08/05 02:28:44;;;;;;;;;;;24.40;84.10;;;;;;5072931;28;20544;-54
2022/08/05 02:31:17;;;;;;;;;;;24.20;84.30;;;;;;5072351;28;19916;-52
2022/08/05 02:33:47;;;;;;;;;;;24.20;84.40;;;;;;5072616;28;19919;-48
2022/08/05 02:36:14;;;;;;;;;;;24.30;84.60;;;;;;5072555;28;19908;-48
2022/08/05 02:38:43;;;;;;;;;;;24.40;84.20;;;;;;5070019;28;19928;-50
2022/08/05 02:41:09;;;;;;;;;;;24.20;84.70;;;;;;5052995;28;19908;-48
2022/08/05 02:43:36;;;;;;;;;;;23.90;86.30;;;;;;5054833;28;19913;-50
2022/08/05 02:46:03;;;;;;;;;;;23.90;86.50;;;;;;5073289;28;19967;-53
2022/08/05 02:48:28;;;;;;;;;;;23.90;86.60;;;;;;5073102;28;19913;-54
2022/08/05 02:50:54;;;;;;;;;;;23.80;86.60;;;;;;5061284;28;20284;-52
2022/08/05 02:53:20;;;;;;;;;;;23.70;87.60;;;;;;5067486;28;19912;-52
2022/08/05 02:55:46;;;;;;;;;;;23.40;88.30;;;;;;5066240;28;20580;-50
2022/08/05 02:58:13;;;;;;;;;;;23.30;89.30;;;;;;5072808;28;19957;-52
2022/08/05 03:00:39;;;;;;;;;;;23.30;89.60;;;;;;5072235;28;19916;-52
2022/08/05 03:03:06;;;;;;;;;;;23.30;89.30;;;;;;5073476;28;19952;-49
2022/08/05 03:05:31;;;;;;;;;;;23.40;89.00;;;;;;5056759;28;19921;-51
2022/08/05 03:07:57;;;;;;;;;;;23.50;88.80;;;;;;5051829;28;20360;-53
2022/08/05 03:10:24;;;;;;;;;;;23.40;89.00;;;;;;5065838;28;19916;-48
2022/08/05 03:12:50;;;;;;;;;;;23.50;88.90;;;;;;5063973;28;19955;-49
2022/08/05 03:15:15;;;;;;;;;;;23.60;88.60;;;;;;5068825;28;20334;-51
2022/08/05 03:17:41;;;;;;;;;;;23.50;89.10;;;;;;5059994;28;20372;-54
2022/08/05 03:20:06;;;;;;;;;;;23.60;88.70;;;;;;5071045;28;20008;-49
2022/08/05 03:22:32;;;;;;;;;;;23.60;88.60;;;;;;5067279;28;20556;-50
2022/08/05 03:24:58;;;;;;;;;;;23.60;88.60;;;;;;5070712;28;19962;-50
2022/08/05 03:27:24;;;;;;;;;;;23.60;88.60;;;;;;5071037;28;19999;-49
2022/08/05 03:29:50;;;;;;;;;;;23.60;88.50;;;;;;5073080;28;19917;-50
2022/08/05 03:32:18;;;;;;;;;;;23.60;88.50;;;;;;5075114;28;20393;-52
2022/08/05 03:34:43;;;;;;;;;;;23.50;88.80;;;;;;5072844;28;19969;-51
2022/08/05 03:37:09;;;;;;;;;;;23.40;89.40;;;;;;5071624;28;20408;-49
2022/08/05 03:39:35;;;;;;;;;;;23.30;89.60;;;;;;5069763;28;19956;-50
2022/08/05 03:42:00;;;;;;;;;;;23.40;89.80;;;;;;5071402;28;20486;-52
2022/08/05 03:44:26;;;;;;;;;;;23.40;89.80;;;;;;5064788;28;20070;-51
2022/08/05 03:46:51;;;;;;;;;;;23.30;89.80;;;;;;5070706;28;20451;-54
2022/08/05 03:49:17;;;;;;;;;;;23.30;90.00;;;;;;5070438;28;19931;-50
2022/08/05 03:51:49;;;;;;;;;;;23.30;90.30;;;;;;5071282;28;20003;-52
2022/08/05 03:54:24;;;;;;;;;;;23.40;90.40;;;;;;5069958;28;20396;-54
2022/08/05 03:56:49;;;;;;;;;;;23.50;90.00;;;;;;5071247;28;20004;-48
2022/08/05 03:59:22;;;;;;;;;;;23.50;89.90;;;;;;5071018;28;19944;-51
2022/08/05 04:01:49;;;;;;;;;;;23.30;90.40;;;;;;5071544;28;19924;-48
2022/08/05 04:04:15;;;;;;;;;;;23.00;90.90;;;;;;5072078;28;20403;-53
2022/08/05 04:06:41;;;;;;;;;;;23.10;91.10;;;;;;5070872;28;19920;-51
2022/08/05 04:09:07;;;;;;;;;;;23.10;91.20;;;;;;5071665;28;19909;-51
2022/08/05 04:11:36;;;;;;;;;;;23.00;91.30;;;;;;5071365;28;20384;-47
2022/08/05 04:14:02;;;;;;;;;;;23.10;91.40;;;;;;5071795;28;20396;-53
2022/08/05 04:16:28;;;;;;;;;;;23.20;91.40;;;;;;5064676;28;19928;-50
2022/08/05 04:18:54;;;;;;;;;;;23.10;91.60;;;;;;5052212;28;19920;-49
2022/08/05 04:21:19;;;;;;;;;;;22.90;92.00;;;;;;5055304;28;19913;-54
2022/08/05 04:23:45;;;;;;;;;;;22.60;92.70;;;;;;5063274;28;19930;-47
2022/08/05 04:26:12;;;;;;;;;;;22.50;93.10;;;;;;5074228;28;19920;-54
2022/08/05 04:28:37;;;;;;;;;;;22.60;93.20;;;;;;5074967;28;19908;-47
2022/08/05 04:31:03;;;;;;;;;;;22.50;93.40;;;;;;5070681;28;19927;-51
2022/08/05 04:33:28;;;;;;;;;;;22.50;93.90;;;;;;5055294;28;20385;-48
2022/08/05 04:35:54;;;;;;;;;;;22.50;94.90;;;;;;5054890;28;20676;-50
2022/08/05 04:38:20;;;;;;;;;;;22.30;96.20;;;;;;5054337;28;19961;-49
2022/08/05 04:40:45;;;;;;;;;;;22.30;97.40;;;;;;5070868;28;19917;-49
2022/08/05 04:43:11;;;;;;;;;;;22.20;98.20;;;;;;5075204;28;19915;-52
2022/08/05 04:45:36;;;;;;;;;;;22.10;98.90;;;;;;5073632;28;19936;-56
2022/08/05 04:48:12;;;;;;;;;;;22.20;99.20;;;;;;5075299;28;19916;-49
2022/08/05 04:50:39;;;;;;;;;;;22.30;99.30;;;;;;5059528;28;19956;-48
2022/08/05 04:53:04;;;;;;;;;;;22.30;99.60;;;;;;5055497;28;19919;-49
2022/08/05 04:55:30;;;;;;;;;;;22.30;99.80;;;;;;5067976;28;20287;-48
2022/08/05 04:57:55;;;;;;;;;;;22.10;99.90;;;;;;5073786;28;19951;-52
2022/08/05 05:00:21;;;;;;;;;;;22.20;99.90;;;;;;5072732;28;19928;-53
2022/08/05 05:02:46;;;;;;;;;;;22.30;99.90;;;;;;5074567;28;20007;-51
2022/08/05 05:05:12;;;;;;;;;;;22.30;99.90;;;;;;5064208;28;19917;-49
2022/08/05 05:07:38;;;;;;;;;;;22.20;99.90;;;;;;5053955;28;20322;-52
2022/08/05 05:10:05;;;;;;;;;;;22.00;99.90;;;;;;5071124;28;19916;-50
2022/08/05 05:12:31;;;;;;;;;;;22.10;99.90;;;;;;5074162;28;19916;-48
2022/08/05 05:14:56;;;;;;;;;;;22.10;99.90;;;;;;5060671;28;20261;-52
2022/08/05 05:17:22;;;;;;;;;;;22.10;99.90;;;;;;5067624;28;19913;-53
2022/08/05 05:19:47;;;;;;;;;;;22.20;99.90;;;;;;5070872;28;19912;-56
2022/08/05 05:22:13;;;;;;;;;;;22.30;99.90;;;;;;5075525;28;19913;-55
2022/08/05 05:24:38;;;;;;;;;;;22.30;99.90;;;;;;5070605;28;19955;-51
2022/08/05 05:27:04;;;;;;;;;;;22.40;99.90;;;;;;5060930;28;19951;-54
2022/08/05 05:29:29;;;;;;;;;;;22.70;99.90;;;;;;5053684;28;19925;-54
2022/08/05 05:31:55;;;;;;;;;;;22.60;99.90;;;;;;5053836;28;20019;-47
2022/08/05 05:34:21;;;;;;;;;;;22.60;99.90;;;;;;5060497;28;19948;-52
2022/08/05 05:36:47;;;;;;;;;;;22.60;99.90;;;;;;5065241;28;19955;-47
2022/08/05 05:39:12;;;;;;;;;;;22.50;99.90;;;;;;5073242;28;20310;-53
2022/08/05 05:41:38;;;;;;;;;;;22.60;99.90;;;;;;5074069;28;19977;-48
2022/08/05 05:44:04;;;;;;;;;;;22.80;99.90;;;;;;5073868;28;20428;-48
2022/08/05 05:46:30;;;;;;;;;;;22.80;99.90;;;;;;5053441;28;20031;-48
2022/08/05 05:48:56;;;;;;;;;;;22.80;99.90;;;;;;5061345;28;19958;-48
2022/08/05 05:51:22;;;;;;;;;;;22.90;99.90;;;;;;5066822;28;19949;-50
2022/08/05 05:53:48;;;;;;;;;;;22.90;99.90;;;;;;5068381;28;19934;-47
2022/08/05 05:56:14;;;;;;;;;;;23.00;99.90;;;;;;5073473;28;19912;-57
2022/08/05 05:58:39;;;;;;;;;;;22.90;99.90;;;;;;5074351;28;20298;-50
2022/08/05 06:01:05;;;;;;;;;;;22.90;99.90;;;;;;5072770;28;19973;-52
2022/08/05 06:03:30;;;;;;;;;;;22.90;99.90;;;;;;5072445;28;19920;-47
2022/08/05 06:05:56;;;;;;;;;;;23.00;99.90;;;;;;5055035;28;19921;-51
2022/08/05 06:08:22;;;;;;;;;;;23.10;99.90;;;;;;5053310;28;20288;-50
2022/08/05 06:10:47;;;;;;;;;;;23.20;99.90;;;;;;5068111;28;19934;-54
2022/08/05 06:13:13;;;;;;;;;;;23.20;99.90;;;;;;5074097;28;20341;-48
2022/08/05 06:15:38;;;;;;;;;;;23.20;99.90;;;;;;5059204;28;19962;-49
2022/08/05 06:18:04;;;;;;;;;;;23.10;99.90;;;;;;5053732;28;19916;-55
2022/08/05 06:20:29;;;;;;;;;;;23.00;99.90;;;;;;5065906;28;19962;-54
2022/08/05 06:22:55;;;;;;;;;;;23.20;99.90;;;;;;5066040;28;19923;-49
2022/08/05 06:25:20;;;;;;;;;;;23.20;99.90;;;;;;5072993;28;20376;-49
2022/08/05 06:27:46;;;;;;;;;;;23.20;99.90;;;;;;5072179;28;19924;-54
2022/08/05 06:30:14;;;;;;;;;;;23.10;99.90;;;;;;5071154;28;19920;-49
2022/08/05 06:32:41;;;;;;;;;;;23.10;99.90;;;;;;5071695;28;19912;-52
2022/08/05 06:35:07;;;;;;;;;;;23.10;99.90;;;;;;5072189;28;19920;-49
2022/08/05 06:37:32;;;;;;;;;;;23.20;99.90;;;;;;5071533;28;19913;-51
2022/08/05 06:39:58;;;;;;;;;;;23.40;99.90;;;;;;5072076;28;19962;-51
2022/08/05 06:42:23;;;;;;;;;;;23.30;99.90;;;;;;5052690;28;19917;-47
2022/08/05 06:44:49;;;;;;;;;;;23.40;99.90;;;;;;5065902;28;19958;-48
2022/08/05 06:47:15;;;;;;;;;;;23.30;99.90;;;;;;5070856;28;19912;-53
2022/08/05 06:49:40;;;;;;;;;;;23.50;99.70;;;;;;5070438;28;19924;-54
2022/08/05 06:52:06;;;;;;;;;;;23.30;99.80;;;;;;5072414;28;19931;-51
2022/08/05 06:54:31;;;;;;;;;;;23.30;99.90;;;;;;5071800;28;20007;-50
2022/08/05 06:56:57;;;;;;;;;;;23.10;99.90;;;;;;5071585;28;19974;-55
2022/08/05 06:59:22;;;;;;;;;;;23.10;99.90;;;;;;5063976;28;19928;-51
2022/08/05 07:01:48;;;;;;;;;;;23.10;99.90;;;;;;5066794;28;19927;-48
2022/08/05 07:04:14;;;;;;;;;;;23.10;99.90;;;;;;5067442;28;19969;-51
2022/08/05 07:06:39;;;;;;;;;;;23.00;99.90;;;;;;5070704;28;19943;-53
2022/08/05 07:09:04;;;;;;;;;;;22.80;99.90;;;;;;5072965;28;20541;-53
2022/08/05 07:11:31;;;;;;;;;;;22.60;99.90;;;;;;5072073;28;19916;-48
2022/08/05 07:16:50;;;;;;;;;;;22.70;99.90;;;;;;5056659;28;20372;-50
2022/08/05 07:19:16;;;;;;;;;;;22.80;99.90;;;;;;5051946;28;19954;-55
2022/08/05 07:21:42;;;;;;;;;;;22.80;99.90;;;;;;5063951;28;19912;-47
2022/08/05 07:24:08;;;;;;;;;;;22.70;99.90;;;;;;5065704;28;19956;-48
2022/08/05 07:26:33;;;;;;;;;;;22.70;99.90;;;;;;5070641;28;19956;-50
2022/08/05 07:28:59;;;;;;;;;;;22.90;99.90;;;;;;5071814;28;19958;-50
2022/08/05 07:31:24;;;;;;;;;;;22.90;99.90;;;;;;5062844;28;19917;-55
2022/08/05 07:33:50;;;;;;;;;;;23.20;99.90;;;;;;5051670;28;19924;-51
2022/08/05 07:36:15;;;;;;;;;;;23.30;99.90;;;;;;5053536;28;19917;-48
2022/08/05 07:38:41;;;;;;;;;;;23.30;99.90;;;;;;5061527;28;19986;-52
2022/08/05 07:41:07;;;;;;;;;;;23.40;99.90;;;;;;5059072;28;19920;-47
2022/08/05 07:43:33;;;;;;;;;;;23.50;99.90;;;;;;5060493;28;19920;-50
2022/08/05 07:45:58;;;;;;;;;;;23.60;99.90;;;;;;5067880;28;19916;-52
2022/08/05 07:48:24;;;;;;;;;;;23.50;99.90;;;;;;5072006;28;19999;-50
2022/08/05 07:50:50;;;;;;;;;;;23.60;99.90;;;;;;5071703;28;20291;-51
2022/08/05 07:53:15;;;;;;;;;;;23.50;99.90;;;;;;5071333;28;19927;-47
2022/08/05 07:55:41;;;;;;;;;;;23.70;99.90;;;;;;5054369;28;20265;-50
2022/08/05 07:58:07;;;;;;;;;;;23.70;99.90;;;;;;5055250;28;19963;-51
2022/08/05 08:00:32;;;;;;;;;;;23.50;99.90;;;;;;5065054;28;19923;-49
2022/08/05 08:02:58;;;;;;;;;;;23.50;99.90;;;;;;5075945;28;19951;-52
2022/08/05 08:05:25;;;;;;;;;;;23.70;99.90;;;;;;5075351;28;19964;-51
2022/08/05 08:07:50;;;;;;;;;;;23.70;99.90;;;;;;5074568;28;19920;-50
2022/08/05 08:10:16;;;;;;;;;;;23.70;99.90;;;;;;5067737;28;19978;-52
2022/08/05 08:12:42;;;;;;;;;;;23.80;99.90;;;;;;5072281;28;19913;-49
2022/08/05 08:15:08;;;;;;;;;;;23.80;99.90;;;;;;5063850;28;20354;-48
2022/08/05 08:17:34;;;;;;;;;;;23.90;99.90;;;;;;5067596;28;20364;-53
2022/08/05 08:20:00;;;;;;;;;;;24.00;99.90;;;;;;5085584;28;19967;-52
2022/08/05 08:22:26;;;;;;;;;;;24.20;99.90;;;;;;5075061;28;19919;-48
2022/08/05 08:24:53;;;;;;;;;;;24.30;99.90;;;;;;5074429;28;19913;-53
2022/08/05 08:27:18;;;;;;;;;;;24.40;99.70;;;;;;5056547;28;20062;-55
2022/08/05 08:29:44;;;;;;;;;;;24.60;99.20;;;;;;5072661;28;19966;-53
2022/08/05 08:32:09;;;;;;;;;;;24.60;99.30;;;;;;5075123;28;19909;-49
2022/08/05 08:34:35;;;;;;;;;;;24.80;99.30;;;;;;5073627;28;20273;-52
2022/08/05 08:37:00;;;;;;;;;;;25.00;98.80;;;;;;5073318;28;19917;-51
2022/08/05 08:39:26;;;;;;;;;;;25.00;98.70;;;;;;5065613;28;19918;-54
2022/08/05 08:41:53;;;;;;;;;;;25.10;98.40;;;;;;5074292;28;20003;-51
2022/08/05 08:44:19;;;;;;;;;;;24.90;98.90;;;;;;5066297;28;19917;-55
2022/08/05 08:46:46;;;;;;;;;;;25.00;98.60;;;;;;5073941;28;20003;-53
2022/08/05 08:49:13;;;;;;;;;;;25.10;98.50;;;;;;5077687;28;19916;-54
2022/08/05 08:51:39;;;;;;;;;;;25.20;98.30;;;;;;5074555;28;19916;-47
2022/08/05 08:54:04;;;;;;;;;;;25.20;98.10;;;;;;5073080;28;19970;-48
2022/08/05 08:56:31;;;;;;;;;;;25.10;98.00;;;;;;5071951;28;19920;-52
2022/08/05 08:58:58;;;;;;;;;;;24.90;98.30;;;;;;5075111;28;19908;-52
2022/08/05 09:01:24;;;;;;;;;;;24.60;98.70;;;;;;5060543;28;19916;-58
2022/08/05 09:03:50;;;;;;;;;;;24.50;99.00;;;;;;5060503;28;19978;-51
2022/08/05 09:06:16;;;;;;;;;;;24.60;99.20;;;;;;5071948;28;19924;-53
2022/08/05 09:08:41;;;;;;;;;;;24.60;99.10;;;;;;5074362;28;19912;-53
2022/08/05 09:11:07;;;;;;;;;;;24.60;99.30;;;;;;5066811;28;19954;-46
2022/08/05 09:13:33;;;;;;;;;;;24.50;99.60;;;;;;5072808;28;19912;-53
2022/08/05 09:15:59;;;;;;;;;;;24.50;99.90;;;;;;5072921;28;19998;-48
2022/08/05 09:18:25;;;;;;;;;;;24.60;99.90;;;;;;5074041;28;19999;-51
2022/08/05 09:20:51;;;;;;;;;;;24.90;99.90;;;;;;5074315;28;19948;-53
2022/08/05 09:23:19;;;;;;;;;;;24.90;99.90;;;;;;5072397;28;19913;-54
2022/08/05 09:25:46;;;;;;;;;;;24.90;99.90;;;;;;5073673;28;19912;-53
2022/08/05 09:28:23;;;;;;;;;;;24.70;99.90;;;;;;5062740;28;20397;-50
2022/08/05 09:31:08;;;;;;;;;;;24.70;99.90;;;;;;5054015;28;20389;-56
2022/08/05 09:34:06;;;;;;;;;;;24.60;99.90;;;;;;5066305;28;19912;-52
2022/08/05 09:36:39;;;;;;;;;;;24.70;99.90;;;;;;5074019;28;19912;-51
2022/08/05 09:39:06;;;;;;;;;;;24.70;99.90;;;;;;5094606;28;20000;-49
2022/08/05 09:41:31;;;;;;;;;;;24.20;99.90;;;;;;5077201;28;19917;-54
2022/08/05 09:43:57;;;;;;;;;;;24.30;99.90;;;;;;5087444;28;19917;-54
2022/08/05 09:46:30;;;;;;;;;;;24.50;99.90;;;;;;5069073;28;19927;-51
2022/08/05 09:48:56;;;;;;;;;;;24.50;99.90;;;;;;5071959;28;19916;-55
2022/08/05 09:51:32;;;;;;;;;;;24.60;99.90;;;;;;5072057;28;19913;-51
2022/08/05 09:53:58;;;;;;;;;;;24.50;99.90;;;;;;5074191;28;19927;-49
2022/08/05 09:56:25;;;;;;;;;;;24.60;99.90;;;;;;5060388;28;19916;-56
2022/08/05 09:58:57;;;;;;;;;;;24.80;99.90;;;;;;5072553;28;19913;-50
2022/08/05 10:01:23;;;;;;;;;;;25.00;99.90;;;;;;5072890;28;19952;-54
2022/08/05 10:03:55;;;;;;;;;;;25.00;99.40;;;;;;5072690;28;19951;-54
2022/08/05 10:06:20;;;;;;;;;;;24.80;99.90;;;;;;5072875;28;19920;-48
2022/08/05 10:08:46;;;;;;;;;;;24.80;99.90;;;;;;5080920;28;19916;-55
2022/08/05 10:11:13;;;;;;;;;;;25.00;99.90;;;;;;5068068;28;19913;-55
2022/08/05 10:13:39;;;;;;;;;;;25.30;99.80;;;;;;5072132;28;19912;-51
2022/08/05 10:16:05;;;;;;;;;;;25.70;99.60;;;;;;5071921;28;19912;-53
2022/08/05 10:18:31;;;;;;;;;;;26.00;99.10;;;;;;5054945;28;19927;-52
2022/08/05 10:21:02;;;;;;;;;;;26.40;98.10;;;;;;5052762;28;19912;-55
2022/08/05 10:23:37;;;;;;;;;;;26.50;96.90;;;;;;5064636;28;19912;-55
2022/08/05 10:26:04;;;;;;;;;;;26.50;95.60;;;;;;5072078;28;20010;-54
2022/08/05 10:28:29;;;;;;;;;;;26.50;95.60;;;;;;5071121;28;19923;-53
2022/08/05 10:30:55;;;;;;;;;;;26.70;95.40;;;;;;5070906;28;19924;-56
2022/08/05 10:33:22;;;;;;;;;;;26.60;95.00;;;;;;5068374;28;19921;-50
2022/08/05 10:35:48;;;;;;;;;;;26.60;94.80;;;;;;5072082;28;19913;-49
2022/08/05 10:38:14;;;;;;;;;;;26.90;94.70;;;;;;5071151;28;19912;-49
2022/08/05 10:40:45;;;;;;;;;;;27.10;94.00;;;;;;5072340;28;20001;-52
2022/08/05 10:43:23;;;;;;;;;;;27.20;94.00;;;;;;5069661;28;19920;-53
2022/08/05 10:45:56;;;;;;;;;;;27.40;93.90;;;;;;5064300;28;19912;-55
2022/08/05 10:48:30;;;;;;;;;;;27.50;93.90;;;;;;5064015;28;19920;-54
2022/08/05 10:50:57;;;;;;;;;;;27.50;94.10;;;;;;5066079;28;19923;-53
2022/08/05 10:53:34;;;;;;;;;;;27.60;93.10;;;;;;5072497;28;19908;-49
2022/08/05 10:56:05;;;;;;;;;;;27.40;93.60;;;;;;5070150;28;19916;-51
2022/08/05 10:58:30;;;;;;;;;;;27.50;93.30;;;;;;5071752;28;20334;-50
2022/08/05 11:00:56;;;;;;;;;;;27.60;93.10;;;;;;5065097;28;19924;-52
2022/08/05 11:03:22;;;;;;;;;;;27.60;93.10;;;;;;5052230;28;19920;-54
2022/08/05 11:06:15;;;;;;;;;;;27.40;93.10;;;;;;5055746;28;19976;-52
2022/08/05 11:09:00;;;;;;;;;;;27.30;93.30;;;;;;5070461;28;19916;-56
2022/08/05 11:11:33;;;;;;;;;;;27.30;93.20;;;;;;5066269;28;19917;-53
2022/08/05 11:13:59;;;;;;;;;;;27.30;93.30;;;;;;5071758;28;20061;-48
2022/08/05 11:16:25;;;;;;;;;;;27.60;93.00;;;;;;5070817;28;19919;-51
2022/08/05 11:19:09;;;;;;;;;;;27.80;92.90;;;;;;5067578;28;19924;-53
2022/08/05 11:21:37;;;;;;;;;;;27.90;92.50;;;;;;5070037;28;20057;-49
2022/08/05 11:24:07;;;;;;;;;;;28.10;92.40;;;;;;5070845;28;19920;-50
2022/08/05 11:26:33;;;;;;;;;;;28.30;92.00;;;;;;5069694;28;19945;-48
2022/08/05 11:29:03;;;;;;;;;;;28.60;91.60;;;;;;5070523;28;19912;-54
2022/08/05 11:31:32;;;;;;;;;;;28.80;91.10;;;;;;5071181;28;19909;-50
2022/08/05 11:33:58;;;;;;;;;;;29.10;90.70;;;;;;5070280;28;19912;-51
2022/08/05 11:36:27;;;;;;;;;;;29.30;90.70;;;;;;5070769;28;19997;-52
2022/08/05 11:38:54;;;;;;;;;;;29.70;90.10;;;;;;5062757;28;20269;-49
2022/08/05 11:41:23;;;;;;;;;;;29.70;89.70;;;;;;5050042;28;20010;-53
2022/08/05 11:43:59;;;;;;;;;;;29.90;89.10;;;;;;5065305;28;19920;-49
2022/08/05 11:46:25;;;;;;;;;;;30.30;88.90;;;;;;5079496;28;19970;-50
2022/08/05 11:48:51;;;;;;;;;;;30.40;88.20;;;;;;5091537;28;19916;-52
2022/08/05 11:51:16;;;;;;;;;;;30.30;88.10;;;;;;5084179;28;20024;-53
2022/08/05 11:53:42;;;;;;;;;;;30.10;88.00;;;;;;5071596;28;20060;-50
2022/08/05 11:56:08;;;;;;;;;;;29.80;87.90;;;;;;5063068;28;20318;-54
2022/08/05 11:58:35;;;;;;;;;;;29.70;87.90;;;;;;5051191;28;20003;-53
2022/08/05 12:01:04;;;;;;;;;;;29.80;87.60;;;;;;5056336;28;20042;-53
2022/08/05 12:03:39;;;;;;;;;;;29.80;87.60;;;;;;5071750;28;19912;-51
2022/08/05 12:06:04;;;;;;;;;;;30.00;87.40;;;;;;5070725;28;19916;-51
2022/08/05 12:08:30;;;;;;;;;;;30.10;87.20;;;;;;5071285;28;19961;-49
2022/08/05 12:10:57;;;;;;;;;;;30.20;86.20;;;;;;5070238;28;19916;-48
2022/08/05 12:13:22;;;;;;;;;;;30.10;85.80;;;;;;5071224;28;20054;-53
2022/08/05 12:15:48;;;;;;;;;;;29.90;85.80;;;;;;5068364;28;19995;-53
2022/08/05 12:18:17;;;;;;;;;;;29.90;85.50;;;;;;5051088;28;20002;-55
2022/08/05 12:20:43;;;;;;;;;;;29.90;85.60;;;;;;5062384;28;21305;-51
2022/08/05 12:23:09;;;;;;;;;;;30.00;84.80;;;;;;5070501;28;19913;-52
2022/08/05 12:25:54;;;;;;;;;;;30.10;84.60;;;;;;5050942;28;19923;-52
2022/08/05 12:28:36;;;;;;;;;;;30.00;85.00;;;;;;5050888;28;20284;-51
2022/08/05 12:31:02;;;;;;;;;;;30.10;85.50;;;;;;5070351;28;20017;-52
2022/08/05 12:33:27;;;;;;;;;;;29.90;86.50;;;;;;5070352;28;19971;-54
2022/08/05 12:35:54;;;;;;;;;;;29.90;83.40;;;;;;5068246;28;19953;-51
2022/08/05 12:38:20;;;;;;;;;;;30.00;81.80;;;;;;5071177;28;19912;-54
2022/08/05 12:40:46;;;;;;;;;;;30.00;81.00;;;;;;5052687;28;19952;-52
2022/08/05 12:43:12;;;;;;;;;;;29.90;79.20;;;;;;5071358;28;20020;-53
2022/08/05 12:45:37;;;;;;;;;;;29.80;78.20;;;;;;5068861;28;19923;-47
2022/08/05 12:48:15;;;;;;;;;;;29.80;78.80;;;;;;5068571;28;19920;-49
2022/08/05 12:50:41;;;;;;;;;;;29.80;77.80;;;;;;5053124;28;20020;-47
2022/08/05 12:53:06;;;;;;;;;;;29.70;78.10;;;;;;5073512;28;20352;-52
2022/08/05 12:55:33;;;;;;;;;;;29.30;78.70;;;;;;5074887;28;19920;-54
2022/08/05 12:57:59;;;;;;;;;;;29.20;78.70;;;;;;5074312;28;19908;-49
2022/08/05 13:00:25;;;;;;;;;;;29.10;78.40;;;;;;5059279;28;20000;-55
2022/08/05 13:02:51;;;;;;;;;;;29.10;78.00;;;;;;5054593;28;19959;-50
2022/08/05 13:05:17;;;;;;;;;;;28.90;78.80;;;;;;5066547;28;19959;-49
2022/08/05 13:07:44;;;;;;;;;;;28.80;78.80;;;;;;5056047;28;19921;-55
2022/08/05 13:10:10;;;;;;;;;;;29.00;77.60;;;;;;5064009;28;19916;-49
2022/08/05 13:12:39;;;;;;;;;;;29.00;78.20;;;;;;5072706;28;20020;-48
2022/08/05 13:15:08;;;;;;;;;;;29.00;77.90;;;;;;5072583;28;20383;-48
2022/08/05 13:17:34;;;;;;;;;;;29.20;78.70;;;;;;5058216;28;22269;-53
2022/08/05 13:19:59;;;;;;;;;;;29.00;80.40;;;;;;5062444;28;19917;-52
2022/08/05 13:22:25;;;;;;;;;;;28.80;81.60;;;;;;5074673;28;19908;-56
2022/08/05 13:24:50;;;;;;;;;;;28.90;82.00;;;;;;5067011;28;20364;-54
2022/08/05 13:27:26;;;;;;;;;;;28.90;80.00;;;;;;5068916;28;19920;-50
2022/08/05 13:29:52;;;;;;;;;;;28.90;79.30;;;;;;5074226;28;20272;-48
2022/08/05 13:32:18;;;;;;;;;;;29.00;78.70;;;;;;5073928;28;19915;-52
2022/08/05 13:34:43;;;;;;;;;;;28.90;78.30;;;;;;5071470;28;20021;-55
2022/08/05 13:37:09;;;;;;;;;;;29.00;78.40;;;;;;5073546;28;20361;-51
2022/08/05 13:39:34;;;;;;;;;;;28.90;79.50;;;;;;5071715;28;20337;-49
2022/08/05 13:42:00;;;;;;;;;;;29.30;79.30;;;;;;5068751;28;19939;-52
2022/08/05 13:44:25;;;;;;;;;;;29.40;76.50;;;;;;5063025;28;19951;-52
2022/08/05 13:46:51;;;;;;;;;;;29.50;76.30;;;;;;5067715;28;20325;-48
2022/08/05 13:49:16;;;;;;;;;;;29.50;75.70;;;;;;5069049;28;20008;-49
2022/08/05 13:51:42;;;;;;;;;;;29.40;75.20;;;;;;5071620;28;19920;-50
2022/08/05 13:54:08;;;;;;;;;;;29.30;75.50;;;;;;5073618;28;19973;-48
2022/08/05 13:56:36;;;;;;;;;;;29.20;76.00;;;;;;5070817;28;19913;-53
2022/08/05 13:59:22;;;;;;;;;;;29.20;75.50;;;;;;5073204;28;19916;-48
2022/08/05 14:01:47;;;;;;;;;;;29.20;75.80;;;;;;5068126;28;19970;-48
2022/08/05 14:06:57;;;;;;;;;;;29.30;74.70;;;;;;5071440;28;19951;-58
2022/08/05 14:09:23;;;;;;;;;;;29.20;73.90;;;;;;5070742;28;20058;-50
2022/08/05 14:11:48;;;;;;;;;;;29.50;73.70;;;;;;5083126;28;19912;-51
2022/08/05 14:14:14;;;;;;;;;;;29.60;73.60;;;;;;5092339;28;19953;-48
2022/08/05 14:16:39;;;;;;;;;;;29.80;74.30;;;;;;5073497;28;19913;-47
2022/08/05 14:19:05;;;;;;;;;;;30.00;73.80;;;;;;5074877;28;19912;-53
2022/08/05 14:21:30;;;;;;;;;;;29.90;74.00;;;;;;5071874;28;19917;-51